This is the latest recevied weather packets stored in our database for station/object KB6HGN. If no packets are shown the sender has not sent any weather packets the latest 10 day(s).
| Time | Temp. | Humidity | Pressure | Rain* | Wind** | Luminosity | Snow |
|---|---|---|---|---|---|---|---|
| 1778440805 | 28.33° C | 31% | 1013.5 hPa | 0 mm | - | 928 W/m² | - |
| 1778439904 | 28.33° C | 34% | 1013.5 hPa | 0 mm | - | 910 W/m² | - |
| 1778439305 | 27.22° C | 36% | 1013.5 hPa | 0 mm | - | 912 W/m² | - |
| 1778438104 | 26.67° C | 39% | 1013.5 hPa | 0 mm | - | 891 W/m² | - |
| 1778433604 | 23.89° C | 52% | 1013.9 hPa | 0 mm | - | 766 W/m² | - |
| 1778428805 | 19.44° C | 69% | 1013.9 hPa | 0 mm | - | 543 W/m² | - |
| 1778427904 | 18.89° C | 73% | 1013.9 hPa | 0 mm | - | 490 W/m² | - |
| 1778425205 | 17.22° C | 80% | 1014.2 hPa | 0 mm | - | 318 W/m² | - |
| 1778424905 | 17.22° C | 82% | 1014.2 hPa | 0 mm | - | 296 W/m² | - |
| 1778422504 | 16.11° C | 85% | 1013.9 hPa | 0 mm | - | 144 W/m² | - |
| 1778410805 | 16.11° C | 81% | 1013.2 hPa | 0 mm | - | 0 W/m² | - |
| 1778410504 | 15.56° C | 80% | 1013.2 hPa | 0 mm | - | 0 W/m² | - |
| 1778403004 | 16.67° C | 75% | 1013.2 hPa | 0 mm | - | 0 W/m² | - |
| 1778402405 | 16.67° C | 75% | 1013.2 hPa | 0 mm | - | 0 W/m² | - |
| 1778400304 | 17.22° C | 73% | 1013.5 hPa | 0 mm | - | 0 W/m² | - |
| 1778399404 | 17.78° C | 72% | 1013.5 hPa | 0 mm | - | 0 W/m² | - |
| 1778398804 | 17.78° C | 72% | 1013.5 hPa | 0 mm | - | 0 W/m² | - |
| 1778396705 | 18.33° C | 70% | 1013.5 hPa | 0 mm | - | 0 W/m² | - |
| 1778394304 | 18.89° C | 68% | 1013.9 hPa | 0 mm | - | 0 W/m² | - |
| 1778394004 | 18.89° C | 68% | 1013.9 hPa | 0 mm | - | 0 W/m² | - |
| 1778391605 | 20° C | 64% | 1013.5 hPa | 0 mm | - | 0 W/m² | - |
| 1778389504 | 20° C | 63% | 1013.5 hPa | 0 mm | - | 0 W/m² | - |
| 1778388004 | 20.56° C | 59% | 1013.2 hPa | 0 mm | - | 0 W/m² | - |
| 1778385304 | 22.22° C | 53% | 1012.8 hPa | 0 mm | - | 0 W/m² | - |
| 1778384405 | 22.22° C | 51% | 1012.8 hPa | 0 mm | - | 0 W/m² | - |
* Rain latest hour (hover to see other rain measurements)
** Current wind speed in m/s (hover to see current wind gust speed)